EGXS

RAF Swinderby Airport

Swinderby, United Kingdom
METAR EGXS 231350Z AUTO 11015KT 9999 // OVC025/// 04/M01 Q1023
Observed Flight Rules
Feb-23 @ 13:50 UTC (39 minutes ago) Marginal Visual Flight Rules
Wind Visibility Clouds
110° at 15 knots 10,000+ meters
  • Overcast at 2,500' AGL
Temperatures Readings
Current 4°C / 39°F
Dewpoint -1°C / 30°F
Humidity 70%
Altimeter 30.21" Hg
Pressure 1023 hPa
Elevation 3
METAR EGXS 231350Z AUTO 11015KT 9999 // OVC025/// 04/M01 Q1023
Observed Flight Rules
Feb-23 @ 13:50 UTC
(39 minutes ago)
MVFR
Wind Visibility
110° at 15 knots 10,000+ meters
Clouds
  • Overcast at 2,500' AGL
Temperature Dewpoint
4°C / 39°F -1°C / 30°F
Humidity Altimeter Pressure
70% 30.21" Hg 1023 hPa